createdAt,value
2019-06-15T00:00:25.855Z,20.46
2019-06-15T00:06:30.412Z,20.72
2019-06-15T00:12:36.614Z,20.71
2019-06-15T00:18:41.283Z,20.43
2019-06-15T00:24:45.852Z,20.35
2019-06-15T00:30:50.419Z,20.20
2019-06-15T00:36:55.036Z,20.08
2019-06-15T00:43:01.265Z,20.10
2019-06-15T00:49:05.897Z,19.98
2019-06-15T00:55:10.595Z,19.92
2019-06-15T01:01:15.231Z,19.91
2019-06-15T01:07:21.427Z,19.99
2019-06-15T01:13:25.988Z,20.00
2019-06-15T01:19:30.607Z,19.77
2019-06-15T01:25:35.359Z,19.79
2019-06-15T01:31:40.049Z,19.82
2019-06-15T01:37:44.597Z,19.68
2019-06-15T01:43:49.181Z,19.96
2019-06-15T01:49:53.730Z,19.75
2019-06-15T01:55:59.869Z,19.80
2019-06-15T02:02:04.498Z,19.65
2019-06-15T02:08:09.115Z,19.75
2019-06-15T02:14:13.671Z,19.71
2019-06-15T02:20:18.786Z,19.68
2019-06-15T02:26:23.369Z,19.90
2019-06-15T02:32:27.955Z,19.99
2019-06-15T02:38:32.665Z,20.00
2019-06-15T02:44:37.218Z,19.88
2019-06-15T02:50:41.831Z,20.16
2019-06-15T02:56:47.896Z,19.99
2019-06-15T03:02:52.524Z,20.07
2019-06-15T03:08:58.178Z,19.88
2019-06-15T03:15:02.858Z,20.00
2019-06-15T03:21:07.447Z,19.69
2019-06-15T03:27:12.568Z,19.90
2019-06-15T03:33:17.274Z,19.93
2019-06-15T03:39:24.913Z,20.03
2019-06-15T03:45:29.460Z,20.15
2019-06-15T03:51:34.078Z,20.43
2019-06-15T03:57:39.162Z,20.50
2019-06-15T04:03:43.799Z,20.46
2019-06-15T04:09:48.490Z,20.57
2019-06-15T04:15:53.097Z,20.69
2019-06-15T04:21:57.736Z,20.52
2019-06-15T04:28:02.355Z,20.72
2019-06-15T04:34:08.534Z,20.98
2019-06-15T04:40:15.505Z,21.01
2019-06-15T04:46:20.237Z,21.47
2019-06-15T04:52:24.785Z,21.42
2019-06-15T04:58:30.976Z,21.54
2019-06-15T05:04:36.064Z,21.46
2019-06-15T05:10:40.652Z,21.28
2019-06-15T05:16:45.204Z,21.33
2019-06-15T05:22:49.758Z,21.45
2019-06-15T05:28:55.955Z,21.34
2019-06-15T05:35:00.524Z,21.32
2019-06-15T05:41:07.321Z,21.22
2019-06-15T05:47:11.930Z,20.98
2019-06-15T05:53:16.502Z,20.96
2019-06-15T05:59:23.948Z,21.18
2019-06-15T06:05:28.511Z,21.38
2019-06-15T06:11:33.081Z,21.58
2019-06-15T06:17:42.278Z,21.91
2019-06-15T06:23:46.377Z,22.22
2019-06-15T06:29:53.929Z,22.68
2019-06-15T06:35:58.460Z,22.68
2019-06-15T06:42:04.728Z,22.32
2019-06-15T06:48:09.287Z,22.93
2019-06-15T06:54:17.645Z,22.97
2019-06-15T07:00:37.110Z,23.74
2019-06-15T07:06:41.646Z,24.15
2019-06-15T07:12:46.201Z,24.49
2019-06-15T07:18:50.756Z,25.06
2019-06-15T07:24:55.320Z,25.39
2019-06-15T07:30:59.882Z,26.16
2019-06-15T07:37:04.521Z,26.34
2019-06-15T07:43:09.065Z,26.71
2019-06-15T07:49:13.805Z,27.02
2019-06-15T07:55:18.405Z,27.58
2019-06-15T08:01:23.023Z,27.89
2019-06-15T08:07:29.432Z,27.28
2019-06-15T08:13:34.084Z,27.49
2019-06-15T08:19:41.780Z,27.49
2019-06-15T08:25:46.469Z,28.01
2019-06-15T08:31:54.897Z,27.65
2019-06-15T08:37:59.498Z,27.83
2019-06-15T08:44:04.183Z,27.53
2019-06-15T08:50:09.415Z,28.42
2019-06-15T08:56:14.128Z,28.82
2019-06-15T09:02:18.746Z,28.86
2019-06-15T09:08:23.420Z,29.34
2019-06-15T09:14:28.003Z,29.13
2019-06-15T09:20:35.732Z,29.41
2019-06-15T09:26:40.323Z,29.30
2019-06-15T09:32:44.881Z,29.68
2019-06-15T09:38:50.311Z,30.09
2019-06-15T09:44:55.700Z,29.01
2019-06-15T09:51:00.473Z,29.47
2019-06-15T09:57:05.227Z,29.49
2019-06-15T10:03:09.868Z,28.78
2019-06-15T10:09:14.442Z,28.68
2019-06-15T10:15:24.063Z,28.17
2019-06-15T10:21:28.888Z,27.59
2019-06-15T10:27:33.445Z,27.95
2019-06-15T10:33:39.761Z,28.06
2019-06-15T10:39:44.487Z,27.17
2019-06-15T10:45:49.195Z,26.86
2019-06-15T10:51:58.245Z,27.09
2019-06-15T10:58:05.975Z,26.28
2019-06-15T11:04:10.533Z,26.25
2019-06-15T11:10:17.938Z,26.23
2019-06-15T11:16:26.086Z,26.78
2019-06-15T11:22:30.691Z,27.17
2019-06-15T11:28:36.344Z,27.14
2019-06-15T11:34:40.963Z,27.00
2019-06-15T11:40:45.517Z,27.08
2019-06-15T11:46:50.218Z,27.15
2019-06-15T11:52:54.758Z,27.62
2019-06-15T11:59:00.638Z,27.66
2019-06-15T12:05:11.496Z,28.22
2019-06-15T12:11:16.103Z,28.46
2019-06-15T12:17:20.790Z,28.38
2019-06-15T12:23:25.398Z,28.51
2019-06-15T12:29:30.095Z,29.04
2019-06-15T12:35:34.790Z,28.80
2019-06-15T12:41:39.337Z,28.83
2019-06-15T12:47:43.895Z,29.12
2019-06-15T12:53:49.686Z,28.89
2019-06-15T12:59:56.136Z,28.46
2019-06-15T13:06:02.322Z,28.48
2019-06-15T13:12:07.016Z,28.67
2019-06-15T13:18:11.554Z,27.33
2019-06-15T13:24:16.372Z,27.20
2019-06-15T13:30:22.554Z,28.67
2019-06-15T13:36:27.160Z,29.26
2019-06-15T13:42:31.777Z,27.56
2019-06-15T13:48:36.317Z,26.82
2019-06-15T13:54:42.649Z,26.17
2019-06-15T14:00:47.318Z,27.05
2019-06-15T14:06:51.939Z,28.06
2019-06-15T14:12:59.675Z,26.95
2019-06-15T14:19:05.832Z,25.78
2019-06-15T14:25:11.042Z,25.47
2019-06-15T14:31:15.665Z,25.52
2019-06-15T14:37:20.358Z,25.62
2019-06-15T14:43:25.394Z,25.65
2019-06-15T14:49:29.948Z,25.29
2019-06-15T14:55:36.624Z,24.46
2019-06-15T15:01:41.042Z,24.05
2019-06-15T15:07:46.977Z,24.88
2019-06-15T15:13:51.734Z,25.26
2019-06-15T15:19:57.412Z,25.85
2019-06-15T15:26:02.255Z,26.43
2019-06-15T15:32:07.990Z,26.49
2019-06-15T15:38:13.252Z,26.33
2019-06-15T15:44:17.822Z,25.98
2019-06-15T15:50:22.391Z,26.19
2019-06-15T15:56:27.314Z,25.85
2019-06-15T16:02:45.569Z,26.35
2019-06-15T16:08:38.193Z,26.56
2019-06-15T16:14:42.742Z,26.70
2019-06-15T16:20:51.553Z,26.52
2019-06-15T16:26:58.963Z,26.43
2019-06-15T16:33:04.228Z,26.29
2019-06-15T16:39:09.261Z,26.71
2019-06-15T16:45:16.129Z,27.36
2019-06-15T16:51:20.923Z,27.96
2019-06-15T16:57:26.643Z,28.26
2019-06-15T17:03:36.502Z,28.11
2019-06-15T17:09:41.052Z,28.08
2019-06-15T17:15:46.920Z,27.01
2019-06-15T17:21:53.265Z,25.87
2019-06-15T17:28:04.178Z,25.19
2019-06-15T17:34:11.815Z,25.08
2019-06-15T17:40:17.948Z,25.11
2019-06-15T17:46:28.915Z,25.45
2019-06-15T17:52:30.595Z,25.73
2019-06-15T17:58:37.040Z,26.69
2019-06-15T18:04:41.608Z,27.92
2019-06-15T18:10:47.503Z,27.62
2019-06-15T18:16:52.791Z,27.10
2019-06-15T18:22:57.513Z,26.18
2019-06-15T18:29:02.057Z,26.31
2019-06-15T18:35:10.891Z,26.86
2019-06-15T18:41:17.052Z,26.27
2019-06-15T18:47:21.968Z,25.69
2019-06-15T18:53:26.997Z,25.22
2019-06-15T18:59:31.581Z,23.53
2019-06-15T19:05:40.997Z,22.69
2019-06-15T19:11:43.219Z,22.38
2019-06-15T19:17:47.776Z,21.95
2019-06-15T19:23:52.371Z,21.55
2019-06-15T19:29:56.944Z,21.19
2019-06-15T19:36:01.501Z,21.03
2019-06-15T19:42:06.127Z,20.84
2019-06-15T19:48:11.332Z,20.43
2019-06-15T19:54:16.082Z,20.50
2019-06-15T20:00:21.127Z,20.13
2019-06-15T20:06:26.134Z,19.66
2019-06-15T20:12:30.811Z,19.28
2019-06-15T20:18:37.443Z,19.28
2019-06-15T20:24:41.707Z,19.20
2019-06-15T20:30:47.775Z,18.87
2019-06-15T20:36:55.309Z,18.62
2019-06-15T20:42:59.869Z,18.39
2019-06-15T20:49:06.576Z,18.39
2019-06-15T20:55:11.226Z,18.05
2019-06-15T21:01:16.446Z,18.03
2019-06-15T21:07:21.177Z,17.96
2019-06-15T21:13:26.356Z,17.88
2019-06-15T21:19:35.957Z,17.66
2019-06-15T21:25:40.065Z,17.47
2019-06-15T21:31:46.407Z,17.57
2019-06-15T21:37:51.057Z,17.36
2019-06-15T21:43:56.538Z,17.23
2019-06-15T21:50:01.263Z,16.97
2019-06-15T21:56:07.175Z,16.80
2019-06-15T22:02:12.092Z,16.98
2019-06-15T22:08:17.125Z,17.02
2019-06-15T22:14:21.798Z,17.08
2019-06-15T22:20:26.435Z,16.97
2019-06-15T22:26:30.989Z,16.92
2019-06-15T22:32:35.546Z,16.78
2019-06-15T22:38:40.099Z,16.89
2019-06-15T22:44:46.434Z,16.72
2019-06-15T22:50:51.159Z,16.66
2019-06-15T22:56:56.640Z,16.69
2019-06-15T23:03:01.367Z,16.34
2019-06-15T23:09:07.549Z,16.32
2019-06-15T23:15:13.492Z,16.05
2019-06-15T23:21:18.050Z,16.17
2019-06-15T23:27:22.621Z,15.57
2019-06-15T23:33:27.153Z,15.67
2019-06-15T23:39:31.709Z,15.66
2019-06-15T23:45:36.307Z,15.39
2019-06-15T23:51:40.867Z,15.48
2019-06-15T23:57:46.516Z,15.45
